sensor_id;sensor_type;location;lat;lon;timestamp;temperature;humidity
34766;DHT22;20984;43.508;1.504;2023-03-23T00:02:02;13.50;99.90
34766;DHT22;20984;43.508;1.504;2023-03-23T00:04:28;13.50;99.90
34766;DHT22;20984;43.508;1.504;2023-03-23T00:06:54;13.50;99.90
34766;DHT22;20984;43.508;1.504;2023-03-23T00:09:20;13.50;99.90
34766;DHT22;20984;43.508;1.504;2023-03-23T00:11:50;13.50;99.90
34766;DHT22;20984;43.508;1.504;2023-03-23T00:14:16;13.40;99.90
34766;DHT22;20984;43.508;1.504;2023-03-23T00:16:47;13.40;99.90
34766;DHT22;20984;43.508;1.504;2023-03-23T00:19:14;13.40;99.90
34766;DHT22;20984;43.508;1.504;2023-03-23T00:21:41;13.40;99.90
34766;DHT22;20984;43.508;1.504;2023-03-23T00:26:36;13.30;99.90
34766;DHT22;20984;43.508;1.504;2023-03-23T00:29:03;13.30;99.90
34766;DHT22;20984;43.508;1.504;2023-03-23T00:31:30;13.20;99.90
34766;DHT22;20984;43.508;1.504;2023-03-23T00:33:59;13.20;99.90
34766;DHT22;20984;43.508;1.504;2023-03-23T00:36:27;13.20;99.90
34766;DHT22;20984;43.508;1.504;2023-03-23T00:38:52;13.20;99.90
34766;DHT22;20984;43.508;1.504;2023-03-23T00:41:18;13.20;99.90
34766;DHT22;20984;43.508;1.504;2023-03-23T00:43:44;13.10;99.90
34766;DHT22;20984;43.508;1.504;2023-03-23T00:46:09;13.10;99.90
34766;DHT22;20984;43.508;1.504;2023-03-23T00:48:38;13.00;99.90
34766;DHT22;20984;43.508;1.504;2023-03-23T00:51:10;13.00;99.90
34766;DHT22;20984;43.508;1.504;2023-03-23T00:53:37;13.00;99.90
34766;DHT22;20984;43.508;1.504;2023-03-23T00:56:03;12.90;99.90
34766;DHT22;20984;43.508;1.504;2023-03-23T00:58:29;12.90;99.90
34766;DHT22;20984;43.508;1.504;2023-03-23T01:00:55;12.90;99.90
34766;DHT22;20984;43.508;1.504;2023-03-23T01:03:22;12.90;99.90
34766;DHT22;20984;43.508;1.504;2023-03-23T01:05:51;12.80;99.90
34766;DHT22;20984;43.508;1.504;2023-03-23T01:08:18;12.80;99.90
34766;DHT22;20984;43.508;1.504;2023-03-23T01:10:45;12.70;99.90
34766;DHT22;20984;43.508;1.504;2023-03-23T01:13:12;12.70;99.90
34766;DHT22;20984;43.508;1.504;2023-03-23T01:15:38;12.70;99.90
34766;DHT22;20984;43.508;1.504;2023-03-23T01:18:04;12.60;99.90
34766;DHT22;20984;43.508;1.504;2023-03-23T01:20:30;12.50;99.90
34766;DHT22;20984;43.508;1.504;2023-03-23T01:22:57;12.50;99.90
34766;DHT22;20984;43.508;1.504;2023-03-23T01:25:30;12.40;99.90
34766;DHT22;20984;43.508;1.504;2023-03-23T01:27:56;12.40;99.90
34766;DHT22;20984;43.508;1.504;2023-03-23T01:30:23;12.40;99.90
34766;DHT22;20984;43.508;1.504;2023-03-23T01:32:49;12.30;99.90
34766;DHT22;20984;43.508;1.504;2023-03-23T01:35:15;12.30;99.90
34766;DHT22;20984;43.508;1.504;2023-03-23T01:37:42;12.20;99.90
34766;DHT22;20984;43.508;1.504;2023-03-23T01:40:08;12.10;99.90
34766;DHT22;20984;43.508;1.504;2023-03-23T01:42:36;12.10;99.90
34766;DHT22;20984;43.508;1.504;2023-03-23T01:47:56;12.00;99.90
34766;DHT22;20984;43.508;1.504;2023-03-23T01:50:25;12.00;99.90
34766;DHT22;20984;43.508;1.504;2023-03-23T01:52:53;12.00;99.90
34766;DHT22;20984;43.508;1.504;2023-03-23T01:55:21;11.90;99.90
34766;DHT22;20984;43.508;1.504;2023-03-23T01:57:48;11.90;99.90
34766;DHT22;20984;43.508;1.504;2023-03-23T02:00:15;11.90;99.90
34766;DHT22;20984;43.508;1.504;2023-03-23T02:02:48;11.80;99.90
34766;DHT22;20984;43.508;1.504;2023-03-23T02:05:40;11.80;99.90
34766;DHT22;20984;43.508;1.504;2023-03-23T02:08:06;11.80;99.90
34766;DHT22;20984;43.508;1.504;2023-03-23T02:10:35;11.70;99.90
34766;DHT22;20984;43.508;1.504;2023-03-23T02:13:02;11.70;99.90
34766;DHT22;20984;43.508;1.504;2023-03-23T02:15:44;11.60;99.90
34766;DHT22;20984;43.508;1.504;2023-03-23T02:21:25;11.60;99.90
34766;DHT22;20984;43.508;1.504;2023-03-23T02:34:16;11.50;99.90
34766;DHT22;20984;43.508;1.504;2023-03-23T02:36:50;11.40;99.90
34766;DHT22;20984;43.508;1.504;2023-03-23T02:39:26;11.40;99.90
34766;DHT22;20984;43.508;1.504;2023-03-23T02:42:02;11.30;99.90
34766;DHT22;20984;43.508;1.504;2023-03-23T02:44:31;11.40;99.90
34766;DHT22;20984;43.508;1.504;2023-03-23T02:46:59;11.40;99.90
34766;DHT22;20984;43.508;1.504;2023-03-23T02:49:28;11.40;99.90
34766;DHT22;20984;43.508;1.504;2023-03-23T02:51:57;11.50;99.90
34766;DHT22;20984;43.508;1.504;2023-03-23T02:54:24;11.50;99.90
34766;DHT22;20984;43.508;1.504;2023-03-23T02:56:52;11.50;99.90
34766;DHT22;20984;43.508;1.504;2023-03-23T02:59:19;11.50;99.90
34766;DHT22;20984;43.508;1.504;2023-03-23T03:01:51;11.60;99.90
34766;DHT22;20984;43.508;1.504;2023-03-23T03:04:23;11.60;99.90
34766;DHT22;20984;43.508;1.504;2023-03-23T03:09:47;11.50;99.90
34766;DHT22;20984;43.508;1.504;2023-03-23T03:12:24;11.50;99.90
34766;DHT22;20984;43.508;1.504;2023-03-23T03:15:02;11.40;99.90
34766;DHT22;20984;43.508;1.504;2023-03-23T03:17:32;11.40;99.90
34766;DHT22;20984;43.508;1.504;2023-03-23T03:20:03;11.40;99.90
34766;DHT22;20984;43.508;1.504;2023-03-23T03:22:38;11.40;99.90
34766;DHT22;20984;43.508;1.504;2023-03-23T03:25:08;11.40;99.90
34766;DHT22;20984;43.508;1.504;2023-03-23T03:27:35;11.40;99.90
34766;DHT22;20984;43.508;1.504;2023-03-23T03:30:03;11.40;99.90
34766;DHT22;20984;43.508;1.504;2023-03-23T03:32:47;11.50;99.90
34766;DHT22;20984;43.508;1.504;2023-03-23T03:35:14;11.50;99.90
34766;DHT22;20984;43.508;1.504;2023-03-23T03:37:41;11.60;99.90
34766;DHT22;20984;43.508;1.504;2023-03-23T03:40:10;11.60;99.90
34766;DHT22;20984;43.508;1.504;2023-03-23T03:42:39;11.60;99.90
34766;DHT22;20984;43.508;1.504;2023-03-23T03:45:06;11.50;99.90
34766;DHT22;20984;43.508;1.504;2023-03-23T03:47:34;11.50;99.90
34766;DHT22;20984;43.508;1.504;2023-03-23T03:49:59;11.50;99.90
34766;DHT22;20984;43.508;1.504;2023-03-23T03:52:25;11.50;99.90
34766;DHT22;20984;43.508;1.504;2023-03-23T03:54:53;11.40;99.90
34766;DHT22;20984;43.508;1.504;2023-03-23T03:57:18;11.40;99.90
34766;DHT22;20984;43.508;1.504;2023-03-23T03:59:45;11.40;99.90
34766;DHT22;20984;43.508;1.504;2023-03-23T04:02:11;11.40;99.90
34766;DHT22;20984;43.508;1.504;2023-03-23T04:04:40;11.40;99.90
34766;DHT22;20984;43.508;1.504;2023-03-23T04:07:07;11.40;99.90
34766;DHT22;20984;43.508;1.504;2023-03-23T04:09:32;11.40;99.90
34766;DHT22;20984;43.508;1.504;2023-03-23T04:11:58;11.40;99.90
34766;DHT22;20984;43.508;1.504;2023-03-23T04:14:24;11.30;99.90
34766;DHT22;20984;43.508;1.504;2023-03-23T04:16:49;11.30;99.90
34766;DHT22;20984;43.508;1.504;2023-03-23T04:19:17;11.30;99.90
34766;DHT22;20984;43.508;1.504;2023-03-23T04:21:43;11.40;99.90
34766;DHT22;20984;43.508;1.504;2023-03-23T04:24:15;11.40;99.90
34766;DHT22;20984;43.508;1.504;2023-03-23T04:26:40;11.40;99.90
34766;DHT22;20984;43.508;1.504;2023-03-23T04:29:07;11.40;99.90
34766;DHT22;20984;43.508;1.504;2023-03-23T04:31:34;11.40;99.90
34766;DHT22;20984;43.508;1.504;2023-03-23T04:34:00;11.50;99.90
34766;DHT22;20984;43.508;1.504;2023-03-23T04:36:27;11.50;99.90
34766;DHT22;20984;43.508;1.504;2023-03-23T04:38:54;11.50;99.90
34766;DHT22;20984;43.508;1.504;2023-03-23T04:41:21;11.60;99.90
34766;DHT22;20984;43.508;1.504;2023-03-23T04:43:48;11.70;99.90
34766;DHT22;20984;43.508;1.504;2023-03-23T04:46:18;11.70;99.90
34766;DHT22;20984;43.508;1.504;2023-03-23T04:48:45;11.80;99.90
34766;DHT22;20984;43.508;1.504;2023-03-23T04:51:11;11.80;99.90
34766;DHT22;20984;43.508;1.504;2023-03-23T04:53:38;11.80;99.90
34766;DHT22;20984;43.508;1.504;2023-03-23T04:56:04;11.80;99.90
34766;DHT22;20984;43.508;1.504;2023-03-23T04:58:29;11.90;99.90
34766;DHT22;20984;43.508;1.504;2023-03-23T05:00:59;11.90;99.90
34766;DHT22;20984;43.508;1.504;2023-03-23T05:03:25;11.90;99.90
34766;DHT22;20984;43.508;1.504;2023-03-23T05:05:52;11.90;99.90
34766;DHT22;20984;43.508;1.504;2023-03-23T05:08:23;11.90;99.90
34766;DHT22;20984;43.508;1.504;2023-03-23T05:10:52;11.90;99.90
34766;DHT22;20984;43.508;1.504;2023-03-23T05:13:18;11.90;99.90
34766;DHT22;20984;43.508;1.504;2023-03-23T05:15:44;12.00;99.90
34766;DHT22;20984;43.508;1.504;2023-03-23T05:18:10;12.00;99.90
34766;DHT22;20984;43.508;1.504;2023-03-23T05:20:36;12.00;99.90
34766;DHT22;20984;43.508;1.504;2023-03-23T05:23:02;12.00;99.90
34766;DHT22;20984;43.508;1.504;2023-03-23T05:25:28;11.90;99.90
34766;DHT22;20984;43.508;1.504;2023-03-23T05:27:53;11.90;99.90
34766;DHT22;20984;43.508;1.504;2023-03-23T05:30:20;11.90;99.90
34766;DHT22;20984;43.508;1.504;2023-03-23T05:32:46;11.80;99.90
34766;DHT22;20984;43.508;1.504;2023-03-23T05:35:17;11.80;99.90
34766;DHT22;20984;43.508;1.504;2023-03-23T05:37:43;11.80;99.90
34766;DHT22;20984;43.508;1.504;2023-03-23T05:40:12;11.80;99.90
34766;DHT22;20984;43.508;1.504;2023-03-23T05:42:38;11.80;99.90
34766;DHT22;20984;43.508;1.504;2023-03-23T05:45:07;11.70;99.90
34766;DHT22;20984;43.508;1.504;2023-03-23T05:47:34;11.70;99.90
34766;DHT22;20984;43.508;1.504;2023-03-23T05:50:00;11.70;99.90
34766;DHT22;20984;43.508;1.504;2023-03-23T05:52:26;11.70;99.90
34766;DHT22;20984;43.508;1.504;2023-03-23T05:54:52;11.70;99.90
34766;DHT22;20984;43.508;1.504;2023-03-23T05:57:19;11.70;99.90
34766;DHT22;20984;43.508;1.504;2023-03-23T05:59:47;11.70;99.90
34766;DHT22;20984;43.508;1.504;2023-03-23T06:02:13;11.70;99.90
34766;DHT22;20984;43.508;1.504;2023-03-23T06:04:40;11.70;99.90
34766;DHT22;20984;43.508;1.504;2023-03-23T06:07:06;11.70;99.90
34766;DHT22;20984;43.508;1.504;2023-03-23T06:09:32;11.70;99.90
34766;DHT22;20984;43.508;1.504;2023-03-23T06:11:58;11.70;99.90
34766;DHT22;20984;43.508;1.504;2023-03-23T06:14:24;11.80;99.90
34766;DHT22;20984;43.508;1.504;2023-03-23T06:16:49;11.80;99.90
34766;DHT22;20984;43.508;1.504;2023-03-23T06:19:16;11.70;99.90
34766;DHT22;20984;43.508;1.504;2023-03-23T06:21:42;11.70;99.90
34766;DHT22;20984;43.508;1.504;2023-03-23T06:24:08;11.70;99.90
34766;DHT22;20984;43.508;1.504;2023-03-23T06:26:37;11.70;99.90
34766;DHT22;20984;43.508;1.504;2023-03-23T06:29:04;11.70;99.90
34766;DHT22;20984;43.508;1.504;2023-03-23T06:31:41;11.80;99.90
34766;DHT22;20984;43.508;1.504;2023-03-23T06:34:08;11.80;99.90
34766;DHT22;20984;43.508;1.504;2023-03-23T06:36:35;11.90;99.90
34766;DHT22;20984;43.508;1.504;2023-03-23T06:39:02;11.90;99.90
34766;DHT22;20984;43.508;1.504;2023-03-23T06:41:30;12.00;99.90
34766;DHT22;20984;43.508;1.504;2023-03-23T06:43:56;12.00;99.90
34766;DHT22;20984;43.508;1.504;2023-03-23T06:46:22;12.00;99.90
34766;DHT22;20984;43.508;1.504;2023-03-23T06:48:48;12.20;99.90
34766;DHT22;20984;43.508;1.504;2023-03-23T06:51:15;12.30;99.90
34766;DHT22;20984;43.508;1.504;2023-03-23T06:53:41;12.50;99.90
34766;DHT22;20984;43.508;1.504;2023-03-23T06:56:07;12.60;99.90
34766;DHT22;20984;43.508;1.504;2023-03-23T06:58:33;12.70;99.90
34766;DHT22;20984;43.508;1.504;2023-03-23T07:00:59;12.70;99.90
34766;DHT22;20984;43.508;1.504;2023-03-23T07:03:24;12.80;99.90
34766;DHT22;20984;43.508;1.504;2023-03-23T07:05:51;12.80;99.90
34766;DHT22;20984;43.508;1.504;2023-03-23T07:08:17;12.90;99.90
34766;DHT22;20984;43.508;1.504;2023-03-23T07:10:43;13.10;99.90
34766;DHT22;20984;43.508;1.504;2023-03-23T07:13:09;13.20;99.90
34766;DHT22;20984;43.508;1.504;2023-03-23T07:15:35;13.40;99.90
34766;DHT22;20984;43.508;1.504;2023-03-23T07:18:02;13.60;99.90
34766;DHT22;20984;43.508;1.504;2023-03-23T07:20:28;13.80;99.90
34766;DHT22;20984;43.508;1.504;2023-03-23T07:22:54;14.00;99.90
34766;DHT22;20984;43.508;1.504;2023-03-23T07:25:20;14.10;99.90
34766;DHT22;20984;43.508;1.504;2023-03-23T07:27:46;14.30;99.90
34766;DHT22;20984;43.508;1.504;2023-03-23T07:30:13;14.30;99.90
34766;DHT22;20984;43.508;1.504;2023-03-23T07:32:40;14.20;99.90
34766;DHT22;20984;43.508;1.504;2023-03-23T07:35:06;14.10;99.90
34766;DHT22;20984;43.508;1.504;2023-03-23T07:37:32;14.10;99.90
34766;DHT22;20984;43.508;1.504;2023-03-23T07:39:58;14.00;99.90
34766;DHT22;20984;43.508;1.504;2023-03-23T07:42:24;13.90;99.90
34766;DHT22;20984;43.508;1.504;2023-03-23T07:44:49;13.90;99.90
34766;DHT22;20984;43.508;1.504;2023-03-23T07:47:15;13.80;99.90
34766;DHT22;20984;43.508;1.504;2023-03-23T07:49:43;13.70;99.90
34766;DHT22;20984;43.508;1.504;2023-03-23T07:52:08;13.60;99.90
34766;DHT22;20984;43.508;1.504;2023-03-23T07:54:36;13.50;99.90
34766;DHT22;20984;43.508;1.504;2023-03-23T07:57:02;13.40;99.90
34766;DHT22;20984;43.508;1.504;2023-03-23T07:59:28;13.40;99.90
34766;DHT22;20984;43.508;1.504;2023-03-23T08:01:54;13.40;99.90
34766;DHT22;20984;43.508;1.504;2023-03-23T08:04:19;13.50;99.90
34766;DHT22;20984;43.508;1.504;2023-03-23T08:06:45;13.70;99.90
34766;DHT22;20984;43.508;1.504;2023-03-23T08:09:10;13.80;99.90
34766;DHT22;20984;43.508;1.504;2023-03-23T08:11:37;14.00;99.90
34766;DHT22;20984;43.508;1.504;2023-03-23T08:14:03;14.10;99.90
34766;DHT22;20984;43.508;1.504;2023-03-23T08:16:29;14.10;99.90
34766;DHT22;20984;43.508;1.504;2023-03-23T08:18:55;14.30;99.90
34766;DHT22;20984;43.508;1.504;2023-03-23T08:21:22;14.40;99.90
34766;DHT22;20984;43.508;1.504;2023-03-23T08:23:48;14.50;99.90
34766;DHT22;20984;43.508;1.504;2023-03-23T08:26:13;14.60;99.90
34766;DHT22;20984;43.508;1.504;2023-03-23T08:28:40;14.70;99.90
34766;DHT22;20984;43.508;1.504;2023-03-23T08:31:12;14.70;99.90
34766;DHT22;20984;43.508;1.504;2023-03-23T08:33:38;14.70;99.90
34766;DHT22;20984;43.508;1.504;2023-03-23T08:36:05;14.80;99.90
34766;DHT22;20984;43.508;1.504;2023-03-23T08:38:31;14.80;99.90
34766;DHT22;20984;43.508;1.504;2023-03-23T08:40:59;14.90;99.90
34766;DHT22;20984;43.508;1.504;2023-03-23T08:43:25;15.00;99.90
34766;DHT22;20984;43.508;1.504;2023-03-23T08:45:51;15.10;99.90
34766;DHT22;20984;43.508;1.504;2023-03-23T08:48:17;15.30;99.90
34766;DHT22;20984;43.508;1.504;2023-03-23T08:50:43;15.40;99.90
34766;DHT22;20984;43.508;1.504;2023-03-23T08:53:09;15.60;99.90
34766;DHT22;20984;43.508;1.504;2023-03-23T08:55:35;15.90;99.90
34766;DHT22;20984;43.508;1.504;2023-03-23T08:58:01;16.10;99.90
34766;DHT22;20984;43.508;1.504;2023-03-23T09:00:29;16.30;99.90
34766;DHT22;20984;43.508;1.504;2023-03-23T09:02:54;16.30;99.90
34766;DHT22;20984;43.508;1.504;2023-03-23T09:05:24;16.20;99.90
34766;DHT22;20984;43.508;1.504;2023-03-23T09:07:51;15.90;99.90
34766;DHT22;20984;43.508;1.504;2023-03-23T09:10:17;15.80;99.90
34766;DHT22;20984;43.508;1.504;2023-03-23T09:12:44;15.70;99.90
34766;DHT22;20984;43.508;1.504;2023-03-23T09:15:13;15.70;99.90
34766;DHT22;20984;43.508;1.504;2023-03-23T09:17:42;15.70;99.90
34766;DHT22;20984;43.508;1.504;2023-03-23T09:20:09;15.80;99.90
34766;DHT22;20984;43.508;1.504;2023-03-23T09:22:38;15.80;99.90
34766;DHT22;20984;43.508;1.504;2023-03-23T09:25:06;15.90;99.90
34766;DHT22;20984;43.508;1.504;2023-03-23T09:27:32;15.90;99.90
34766;DHT22;20984;43.508;1.504;2023-03-23T09:29:59;15.90;99.90
34766;DHT22;20984;43.508;1.504;2023-03-23T09:32:26;16.00;99.90
34766;DHT22;20984;43.508;1.504;2023-03-23T09:34:52;16.00;99.90
34766;DHT22;20984;43.508;1.504;2023-03-23T09:37:20;16.10;99.90
34766;DHT22;20984;43.508;1.504;2023-03-23T09:39:46;16.20;99.90
34766;DHT22;20984;43.508;1.504;2023-03-23T09:42:31;16.30;99.90
34766;DHT22;20984;43.508;1.504;2023-03-23T09:45:25;16.40;99.90
34766;DHT22;20984;43.508;1.504;2023-03-23T09:50:42;16.70;99.90
34766;DHT22;20984;43.508;1.504;2023-03-23T09:53:15;16.60;99.90
34766;DHT22;20984;43.508;1.504;2023-03-23T09:55:42;16.70;99.90
34766;DHT22;20984;43.508;1.504;2023-03-23T09:58:22;16.60;99.90
34766;DHT22;20984;43.508;1.504;2023-03-23T10:03:45;16.70;99.90
34766;DHT22;20984;43.508;1.504;2023-03-23T10:06:16;16.90;99.90
34766;DHT22;20984;43.508;1.504;2023-03-23T10:08:51;16.80;99.90
34766;DHT22;20984;43.508;1.504;2023-03-23T10:19:27;17.00;99.90
34766;DHT22;20984;43.508;1.504;2023-03-23T10:22:02;17.30;99.90
34766;DHT22;20984;43.508;1.504;2023-03-23T10:24:55;17.30;99.90
34766;DHT22;20984;43.508;1.504;2023-03-23T10:27:26;17.50;99.90
34766;DHT22;20984;43.508;1.504;2023-03-23T10:30:03;17.70;99.90
34766;DHT22;20984;43.508;1.504;2023-03-23T10:33:05;17.80;99.90
34766;DHT22;20984;43.508;1.504;2023-03-23T10:38:22;17.80;99.90
34766;DHT22;20984;43.508;1.504;2023-03-23T10:41:16;17.80;99.90
34766;DHT22;20984;43.508;1.504;2023-03-23T10:43:44;17.80;99.90
34766;DHT22;20984;43.508;1.504;2023-03-23T10:46:43;17.60;99.90
34766;DHT22;20984;43.508;1.504;2023-03-23T10:49:19;17.50;99.90
34766;DHT22;20984;43.508;1.504;2023-03-23T10:54:39;17.40;99.90
34766;DHT22;20984;43.508;1.504;2023-03-23T10:57:24;17.50;99.90
34766;DHT22;20984;43.508;1.504;2023-03-23T11:02:27;17.60;99.90
34766;DHT22;20984;43.508;1.504;2023-03-23T11:05:00;17.60;99.90
34766;DHT22;20984;43.508;1.504;2023-03-23T11:07:32;17.70;99.90
34766;DHT22;20984;43.508;1.504;2023-03-23T11:10:06;17.60;99.90
34766;DHT22;20984;43.508;1.504;2023-03-23T11:12:34;17.70;99.90
34766;DHT22;20984;43.508;1.504;2023-03-23T11:18:19;18.00;99.90
34766;DHT22;20984;43.508;1.504;2023-03-23T11:20:48;18.00;99.90
34766;DHT22;20984;43.508;1.504;2023-03-23T11:23:28;18.00;99.90
34766;DHT22;20984;43.508;1.504;2023-03-23T11:26:29;18.00;99.90
34766;DHT22;20984;43.508;1.504;2023-03-23T11:29:04;18.00;99.90
34766;DHT22;20984;43.508;1.504;2023-03-23T11:31:34;17.90;99.90
34766;DHT22;20984;43.508;1.504;2023-03-23T11:34:23;17.90;99.90
34766;DHT22;20984;43.508;1.504;2023-03-23T11:36:53;17.80;99.90
34766;DHT22;20984;43.508;1.504;2023-03-23T11:39:25;17.90;99.90
34766;DHT22;20984;43.508;1.504;2023-03-23T11:41:52;17.90;99.90
34766;DHT22;20984;43.508;1.504;2023-03-23T11:44:21;18.00;99.90
34766;DHT22;20984;43.508;1.504;2023-03-23T11:46:49;17.90;99.90
34766;DHT22;20984;43.508;1.504;2023-03-23T11:52:55;18.00;99.90
34766;DHT22;20984;43.508;1.504;2023-03-23T11:55:28;18.00;99.90
34766;DHT22;20984;43.508;1.504;2023-03-23T11:58:00;18.20;99.90
34766;DHT22;20984;43.508;1.504;2023-03-23T12:00:26;18.00;99.90
34766;DHT22;20984;43.508;1.504;2023-03-23T12:03:26;18.10;99.90
34766;DHT22;20984;43.508;1.504;2023-03-23T12:11:45;18.40;99.90
34766;DHT22;20984;43.508;1.504;2023-03-23T12:35:54;18.60;99.90
34766;DHT22;20984;43.508;1.504;2023-03-23T12:43:58;18.60;99.90
34766;DHT22;20984;43.508;1.504;2023-03-23T12:52:11;18.80;99.90
34766;DHT22;20984;43.508;1.504;2023-03-23T12:57:56;18.70;99.90
34766;DHT22;20984;43.508;1.504;2023-03-23T13:00:29;18.80;99.90
34766;DHT22;20984;43.508;1.504;2023-03-23T13:05:52;18.80;99.90
34766;DHT22;20984;43.508;1.504;2023-03-23T13:08:27;18.80;99.90
34766;DHT22;20984;43.508;1.504;2023-03-23T13:10:59;19.00;99.90
34766;DHT22;20984;43.508;1.504;2023-03-23T13:13:55;18.90;99.90
34766;DHT22;20984;43.508;1.504;2023-03-23T13:22:42;18.80;99.90
34766;DHT22;20984;43.508;1.504;2023-03-23T13:25:17;18.70;99.90
34766;DHT22;20984;43.508;1.504;2023-03-23T13:27:44;18.90;99.90
34766;DHT22;20984;43.508;1.504;2023-03-23T13:30:22;19.00;99.90
34766;DHT22;20984;43.508;1.504;2023-03-23T13:32:51;19.20;99.90
34766;DHT22;20984;43.508;1.504;2023-03-23T13:35:19;19.40;99.90
34766;DHT22;20984;43.508;1.504;2023-03-23T13:37:51;19.30;99.90
34766;DHT22;20984;43.508;1.504;2023-03-23T13:40:28;19.30;99.90
34766;DHT22;20984;43.508;1.504;2023-03-23T13:42:56;19.40;99.90
34766;DHT22;20984;43.508;1.504;2023-03-23T13:47:50;19.50;99.90
34766;DHT22;20984;43.508;1.504;2023-03-23T13:50:28;19.60;99.90
34766;DHT22;20984;43.508;1.504;2023-03-23T13:53:12;19.40;99.90
34766;DHT22;20984;43.508;1.504;2023-03-23T13:55:50;19.10;99.90
34766;DHT22;20984;43.508;1.504;2023-03-23T13:58:24;19.00;99.90
34766;DHT22;20984;43.508;1.504;2023-03-23T14:01:11;19.10;99.90
34766;DHT22;20984;43.508;1.504;2023-03-23T14:03:42;19.10;99.90
34766;DHT22;20984;43.508;1.504;2023-03-23T14:06:18;18.80;99.90
34766;DHT22;20984;43.508;1.504;2023-03-23T14:08:47;18.60;99.90
34766;DHT22;20984;43.508;1.504;2023-03-23T14:11:27;18.50;99.90
34766;DHT22;20984;43.508;1.504;2023-03-23T14:16:43;18.20;99.90
34766;DHT22;20984;43.508;1.504;2023-03-23T14:19:25;18.30;99.90
34766;DHT22;20984;43.508;1.504;2023-03-23T14:21:57;18.20;99.90
34766;DHT22;20984;43.508;1.504;2023-03-23T14:24:31;18.20;99.90
34766;DHT22;20984;43.508;1.504;2023-03-23T14:27:16;18.20;99.90
34766;DHT22;20984;43.508;1.504;2023-03-23T14:29:42;18.30;99.90
34766;DHT22;20984;43.508;1.504;2023-03-23T14:32:17;18.30;99.90
34766;DHT22;20984;43.508;1.504;2023-03-23T14:34:44;18.40;99.90
34766;DHT22;20984;43.508;1.504;2023-03-23T14:37:14;18.20;99.90
34766;DHT22;20984;43.508;1.504;2023-03-23T14:39:44;18.20;99.90
34766;DHT22;20984;43.508;1.504;2023-03-23T14:42:14;18.20;99.90
34766;DHT22;20984;43.508;1.504;2023-03-23T14:44:46;18.30;99.90
34766;DHT22;20984;43.508;1.504;2023-03-23T14:47:29;18.30;99.90
34766;DHT22;20984;43.508;1.504;2023-03-23T14:50:00;18.40;99.90
34766;DHT22;20984;43.508;1.504;2023-03-23T14:52:34;18.50;99.90
34766;DHT22;20984;43.508;1.504;2023-03-23T14:55:17;18.30;99.90
34766;DHT22;20984;43.508;1.504;2023-03-23T14:57:43;18.10;99.90
34766;DHT22;20984;43.508;1.504;2023-03-23T15:00:16;18.00;99.90
34766;DHT22;20984;43.508;1.504;2023-03-23T15:02:45;17.90;99.90
34766;DHT22;20984;43.508;1.504;2023-03-23T15:05:35;17.80;99.90
34766;DHT22;20984;43.508;1.504;2023-03-23T15:08:05;17.70;99.90
34766;DHT22;20984;43.508;1.504;2023-03-23T15:10:32;17.60;99.90
34766;DHT22;20984;43.508;1.504;2023-03-23T15:12:58;17.50;99.90
34766;DHT22;20984;43.508;1.504;2023-03-23T15:15:32;17.40;99.90
34766;DHT22;20984;43.508;1.504;2023-03-23T15:17:59;17.40;99.90
34766;DHT22;20984;43.508;1.504;2023-03-23T15:20:46;17.40;99.90
34766;DHT22;20984;43.508;1.504;2023-03-23T15:23:17;17.40;99.90
34766;DHT22;20984;43.508;1.504;2023-03-23T15:25:52;17.50;99.90
34766;DHT22;20984;43.508;1.504;2023-03-23T15:28:27;17.50;99.90
34766;DHT22;20984;43.508;1.504;2023-03-23T15:31:00;17.40;99.90
34766;DHT22;20984;43.508;1.504;2023-03-23T15:33:33;17.50;99.90
34766;DHT22;20984;43.508;1.504;2023-03-23T15:35:58;17.60;99.90
34766;DHT22;20984;43.508;1.504;2023-03-23T15:38:30;17.80;99.90
34766;DHT22;20984;43.508;1.504;2023-03-23T15:41:00;18.10;99.90
34766;DHT22;20984;43.508;1.504;2023-03-23T15:43:49;18.60;99.90
34766;DHT22;20984;43.508;1.504;2023-03-23T15:48:49;18.30;99.90
34766;DHT22;20984;43.508;1.504;2023-03-23T15:51:16;18.10;99.90
34766;DHT22;20984;43.508;1.504;2023-03-23T15:53:43;18.10;99.90
34766;DHT22;20984;43.508;1.504;2023-03-23T15:56:10;18.40;99.90
34766;DHT22;20984;43.508;1.504;2023-03-23T15:58:36;18.30;99.90
34766;DHT22;20984;43.508;1.504;2023-03-23T16:01:16;18.00;99.90
34766;DHT22;20984;43.508;1.504;2023-03-23T16:03:52;17.60;99.90
34766;DHT22;20984;43.508;1.504;2023-03-23T16:06:20;17.30;99.90
34766;DHT22;20984;43.508;1.504;2023-03-23T16:08:46;17.10;99.90
34766;DHT22;20984;43.508;1.504;2023-03-23T16:11:17;17.00;99.90
34766;DHT22;20984;43.508;1.504;2023-03-23T16:13:44;16.90;99.90
34766;DHT22;20984;43.508;1.504;2023-03-23T16:16:20;16.70;99.90
34766;DHT22;20984;43.508;1.504;2023-03-23T16:18:46;16.60;99.90
34766;DHT22;20984;43.508;1.504;2023-03-23T16:21:12;16.50;99.90
34766;DHT22;20984;43.508;1.504;2023-03-23T16:23:38;16.50;99.90
34766;DHT22;20984;43.508;1.504;2023-03-23T16:26:05;16.40;99.90
34766;DHT22;20984;43.508;1.504;2023-03-23T16:28:31;16.30;99.90
34766;DHT22;20984;43.508;1.504;2023-03-23T16:30:57;16.40;99.90
34766;DHT22;20984;43.508;1.504;2023-03-23T16:33:22;16.40;99.90
34766;DHT22;20984;43.508;1.504;2023-03-23T16:35:48;16.40;99.90
34766;DHT22;20984;43.508;1.504;2023-03-23T16:38:15;16.40;99.90
34766;DHT22;20984;43.508;1.504;2023-03-23T16:40:42;16.40;99.90
34766;DHT22;20984;43.508;1.504;2023-03-23T16:43:08;16.30;99.90
34766;DHT22;20984;43.508;1.504;2023-03-23T16:45:36;16.30;99.90
34766;DHT22;20984;43.508;1.504;2023-03-23T16:48:02;16.30;99.90
34766;DHT22;20984;43.508;1.504;2023-03-23T16:50:30;16.30;99.90
34766;DHT22;20984;43.508;1.504;2023-03-23T16:52:56;16.30;99.90
34766;DHT22;20984;43.508;1.504;2023-03-23T16:55:21;16.30;99.90
34766;DHT22;20984;43.508;1.504;2023-03-23T16:57:47;16.30;99.90
34766;DHT22;20984;43.508;1.504;2023-03-23T17:00:15;16.30;99.90
34766;DHT22;20984;43.508;1.504;2023-03-23T17:02:45;16.20;99.90
34766;DHT22;20984;43.508;1.504;2023-03-23T17:05:12;16.20;99.90
34766;DHT22;20984;43.508;1.504;2023-03-23T17:07:39;16.10;99.90
34766;DHT22;20984;43.508;1.504;2023-03-23T17:10:06;16.10;99.90
34766;DHT22;20984;43.508;1.504;2023-03-23T17:12:33;16.10;99.90
34766;DHT22;20984;43.508;1.504;2023-03-23T17:14:58;15.90;99.90
34766;DHT22;20984;43.508;1.504;2023-03-23T17:17:24;15.80;99.90
34766;DHT22;20984;43.508;1.504;2023-03-23T17:19:50;15.70;99.90
34766;DHT22;20984;43.508;1.504;2023-03-23T17:22:16;15.60;99.90
34766;DHT22;20984;43.508;1.504;2023-03-23T17:24:42;15.50;99.90
34766;DHT22;20984;43.508;1.504;2023-03-23T17:27:08;15.50;99.90
34766;DHT22;20984;43.508;1.504;2023-03-23T17:29:33;15.40;99.90
34766;DHT22;20984;43.508;1.504;2023-03-23T17:31:59;15.30;99.90
34766;DHT22;20984;43.508;1.504;2023-03-23T17:34:25;15.20;99.90